createdAt,value
2019-04-10T00:00:39.162Z,100053.58
2019-04-10T00:03:08.277Z,100049.80
2019-04-10T00:05:36.586Z,100056.27
2019-04-10T00:08:04.766Z,100055.22
2019-04-10T00:10:33.994Z,100056.09
2019-04-10T00:13:02.462Z,100059.98
2019-04-10T00:15:30.683Z,100061.83
2019-04-10T00:17:59.765Z,100060.48
2019-04-10T00:20:28.805Z,100064.61
2019-04-10T00:22:56.940Z,100060.83
2019-04-10T00:25:24.854Z,100065.69
2019-04-10T00:27:53.005Z,100055.06
2019-04-10T00:30:21.030Z,100063.86
2019-04-10T00:32:49.221Z,100060.00
2019-04-10T00:35:17.210Z,100056.06
2019-04-10T00:37:45.705Z,100061.27
2019-04-10T00:40:13.738Z,100066.59
2019-04-10T00:42:41.580Z,100061.70
2019-04-10T00:45:09.722Z,100063.86
2019-04-10T00:47:38.065Z,100065.59
2019-04-10T00:50:06.458Z,100065.50
2019-04-10T00:52:36.659Z,100064.08
2019-04-10T00:55:05.718Z,100064.27
2019-04-10T00:57:33.857Z,100062.96
2019-04-10T01:00:01.926Z,100057.20
2019-04-10T01:02:29.886Z,100052.34
2019-04-10T01:04:58.458Z,100055.83
2019-04-10T01:07:35.692Z,100055.48
2019-04-10T01:09:56.393Z,100057.01
2019-04-10T01:12:24.461Z,100059.33
2019-04-10T01:14:52.431Z,100059.19
2019-04-10T01:17:20.561Z,100055.94
2019-04-10T01:19:50.277Z,100059.27
2019-04-10T01:22:19.033Z,100052.24
2019-04-10T01:24:48.453Z,100065.86
2019-04-10T01:27:16.500Z,100059.48
2019-04-10T01:29:44.568Z,100061.75
2019-04-10T01:32:12.604Z,100060.19
2019-04-10T01:34:41.281Z,100060.39
2019-04-10T01:37:10.245Z,100059.23
2019-04-10T01:39:38.253Z,100053.83
2019-04-10T01:42:08.182Z,100060.66
2019-04-10T01:44:36.463Z,100057.06
2019-04-10T01:47:04.760Z,100052.57
2019-04-10T01:49:33.583Z,100050.69
2019-04-10T01:52:01.823Z,100052.52
2019-04-10T01:54:29.883Z,100057.52
2019-04-10T01:56:57.889Z,100054.44
2019-04-10T01:59:27.267Z,100049.53
2019-04-10T02:02:00.990Z,100049.34
2019-04-10T02:04:29.176Z,100043.27
2019-04-10T02:06:57.968Z,100046.75
2019-04-10T02:09:26.040Z,100043.66
2019-04-10T02:11:54.467Z,100046.20
2019-04-10T02:14:23.113Z,100047.09
2019-04-10T02:16:51.554Z,100046.38
2019-04-10T02:19:19.681Z,100050.64
2019-04-10T02:21:47.811Z,100048.97
2019-04-10T02:24:16.706Z,100057.14
2019-04-10T02:26:45.631Z,100054.20
2019-04-10T02:29:13.856Z,100053.44
2019-04-10T02:31:41.792Z,100063.63
2019-04-10T02:34:09.801Z,100055.77
2019-04-10T02:36:38.503Z,100055.50
2019-04-10T02:39:17.807Z,100055.88
2019-04-10T02:41:38.633Z,100048.11
2019-04-10T02:44:07.910Z,100047.50
2019-04-10T02:46:36.886Z,100050.48
2019-04-10T02:49:06.215Z,100042.98
2019-04-10T02:51:35.164Z,100049.41
2019-04-10T02:54:05.242Z,100049.06
2019-04-10T02:56:33.597Z,100054.56
2019-04-10T02:59:02.843Z,100048.98
2019-04-10T03:01:31.585Z,100043.01
2019-04-10T03:04:01.313Z,100045.72
2019-04-10T03:06:31.013Z,100049.55
2019-04-10T03:09:14.711Z,100050.65
2019-04-10T03:11:31.092Z,100045.61
2019-04-10T03:13:59.945Z,100049.55
2019-04-10T03:16:29.171Z,100044.43
2019-04-10T03:18:57.704Z,100052.17
2019-04-10T03:21:25.612Z,100047.39
2019-04-10T03:23:53.818Z,100043.45
2019-04-10T03:26:21.940Z,100050.16
2019-04-10T03:28:49.885Z,100043.70
2019-04-10T03:31:19.874Z,100045.01
2019-04-10T03:34:13.540Z,100040.22
2019-04-10T03:36:41.091Z,100039.73
2019-04-10T03:39:10.595Z,100045.45
2019-04-10T03:41:40.126Z,100043.53
2019-04-10T03:44:08.239Z,100038.20
2019-04-10T03:46:38.716Z,100038.20
2019-04-10T03:49:06.339Z,100037.23
2019-04-10T03:51:34.252Z,100041.05
2019-04-10T03:54:02.641Z,100036.00
2019-04-10T03:56:31.813Z,100043.56
2019-04-10T03:59:06.755Z,100042.36
2019-04-10T04:01:35.380Z,100045.23
2019-04-10T04:04:04.968Z,100044.27
2019-04-10T04:06:33.425Z,100038.80
2019-04-10T04:09:08.919Z,100044.52
2019-04-10T04:11:31.445Z,100047.50
2019-04-10T04:13:59.840Z,100050.59
2019-04-10T04:16:27.903Z,100060.75
2019-04-10T04:18:55.912Z,100050.98
2019-04-10T04:21:23.833Z,100060.77
2019-04-10T04:23:51.863Z,100055.55
2019-04-10T04:26:21.163Z,100054.83
2019-04-10T04:28:49.461Z,100055.05
2019-04-10T04:31:18.106Z,100051.69
2019-04-10T04:33:46.913Z,100056.23
2019-04-10T04:36:15.944Z,100055.50
2019-04-10T04:38:45.051Z,100062.17
2019-04-10T04:41:13.362Z,100059.66
2019-04-10T04:43:43.406Z,100071.87
2019-04-10T04:46:12.023Z,100071.73
2019-04-10T04:48:41.000Z,100069.84
2019-04-10T04:51:09.339Z,100081.53
2019-04-10T04:53:37.327Z,100078.41
2019-04-10T04:56:05.337Z,100076.16
2019-04-10T04:58:33.979Z,100079.72
2019-04-10T05:01:04.334Z,100082.38
2019-04-10T05:03:33.405Z,100085.36
2019-04-10T05:06:01.861Z,100081.55
2019-04-10T05:08:30.227Z,100090.98
2019-04-10T05:10:58.470Z,100085.27
2019-04-10T05:13:26.445Z,100085.50
2019-04-10T05:15:55.395Z,100086.78
2019-04-10T05:18:23.592Z,100090.84
2019-04-10T05:20:52.411Z,100095.98
2019-04-10T05:23:22.272Z,100097.30
2019-04-10T05:25:50.402Z,100099.68
2019-04-10T05:28:20.301Z,100095.63
2019-04-10T05:30:48.362Z,100093.82
2019-04-10T05:33:16.467Z,100091.20
2019-04-10T05:35:45.259Z,100103.00
2019-04-10T05:38:13.835Z,100105.84
2019-04-10T05:40:42.252Z,100105.48
2019-04-10T05:43:11.411Z,100103.71
2019-04-10T05:45:40.496Z,100112.17
2019-04-10T05:48:08.818Z,100106.55
2019-04-10T05:50:37.822Z,100105.56
2019-04-10T05:53:05.973Z,100102.33
2019-04-10T05:55:33.898Z,100105.42
2019-04-10T05:58:01.868Z,100106.48
2019-04-10T06:00:29.933Z,100106.48
2019-04-10T06:02:58.466Z,100106.23
2019-04-10T06:05:35.732Z,100100.52
2019-04-10T06:08:03.784Z,100104.56
2019-04-10T06:10:32.240Z,100102.55
2019-04-10T06:13:00.553Z,100104.35
2019-04-10T06:15:28.801Z,100101.83
2019-04-10T06:17:56.721Z,100101.83
2019-04-10T06:20:25.072Z,100105.27
2019-04-10T06:22:54.884Z,100103.71
2019-04-10T06:25:24.781Z,100110.64
2019-04-10T06:27:53.068Z,100106.33
2019-04-10T06:30:21.060Z,100110.98
2019-04-10T06:32:49.103Z,100113.02
2019-04-10T06:35:17.313Z,100114.69
2019-04-10T06:37:46.314Z,100112.20
2019-04-10T06:40:19.663Z,100113.97
2019-04-10T06:42:50.236Z,100113.31
2019-04-10T06:45:15.544Z,100111.14
2019-04-10T06:47:44.521Z,100109.51
2019-04-10T06:50:13.048Z,100119.63
2019-04-10T06:52:41.050Z,100115.23
2019-04-10T06:55:09.313Z,100110.78
2019-04-10T06:57:47.863Z,100110.42
2019-04-10T07:00:15.274Z,100114.98
2019-04-10T07:02:44.275Z,100111.07
2019-04-10T07:05:13.871Z,100113.95
2019-04-10T07:07:51.366Z,100109.41
2019-04-10T07:10:23.774Z,100109.86
2019-04-10T07:12:43.872Z,100109.12
2019-04-10T07:15:12.516Z,100116.51
2019-04-10T07:17:41.893Z,100117.47
2019-04-10T07:20:10.850Z,100123.94
2019-04-10T07:22:44.579Z,100119.53
2019-04-10T07:25:11.146Z,100124.79
2019-04-10T07:27:40.156Z,100126.67
2019-04-10T07:30:09.825Z,100125.86
2019-04-10T07:32:42.072Z,100128.13
2019-04-10T07:35:08.981Z,100125.61
2019-04-10T07:37:37.217Z,100133.70
2019-04-10T07:40:06.184Z,100132.04
2019-04-10T07:42:38.423Z,100131.19
2019-04-10T07:45:04.747Z,100132.28
2019-04-10T07:47:32.612Z,100132.64
2019-04-10T07:50:02.099Z,100129.51
2019-04-10T07:52:30.753Z,100137.25
2019-04-10T07:54:58.823Z,100136.58
2019-04-10T07:57:26.805Z,100142.20
2019-04-10T07:59:54.797Z,100140.28
2019-04-10T08:02:23.334Z,100138.01
2019-04-10T08:04:51.677Z,100135.94
2019-04-10T08:07:29.436Z,100138.66
2019-04-10T08:09:49.834Z,100139.88
2019-04-10T08:12:18.977Z,100146.97
2019-04-10T08:14:47.116Z,100143.77
2019-04-10T08:17:16.285Z,100137.02
2019-04-10T08:19:45.266Z,100141.63
2019-04-10T08:22:14.252Z,100145.46
2019-04-10T08:24:42.668Z,100145.89
2019-04-10T08:27:11.711Z,100145.48
2019-04-10T08:29:40.876Z,100151.55
2019-04-10T08:32:09.866Z,100160.67
2019-04-10T08:34:38.280Z,100155.45
2019-04-10T08:37:06.559Z,100156.86
2019-04-10T08:39:41.157Z,100154.84
2019-04-10T08:42:06.403Z,100151.15
2019-04-10T08:44:34.697Z,100150.44
2019-04-10T08:47:02.689Z,100149.92
2019-04-10T08:49:30.915Z,100146.35
2019-04-10T08:51:59.869Z,100145.55
2019-04-10T08:54:28.137Z,100143.19
2019-04-10T08:56:56.887Z,100142.77
2019-04-10T08:59:25.053Z,100139.96
2019-04-10T09:01:54.034Z,100144.27
2019-04-10T09:04:22.672Z,100142.06
2019-04-10T09:06:51.534Z,100143.55
2019-04-10T09:09:19.486Z,100146.27
2019-04-10T09:11:47.420Z,100142.75
2019-04-10T09:14:15.255Z,100141.63
2019-04-10T09:16:43.196Z,100139.16
2019-04-10T09:19:11.971Z,100141.17
2019-04-10T09:21:41.710Z,100144.94
2019-04-10T09:24:10.238Z,100143.62
2019-04-10T09:26:38.887Z,100145.71
2019-04-10T09:29:06.916Z,100136.83
2019-04-10T09:31:35.354Z,100140.83
2019-04-10T09:34:03.814Z,100142.84
2019-04-10T09:36:31.859Z,100141.20
2019-04-10T09:38:59.797Z,100139.34
2019-04-10T09:41:28.093Z,100145.31
2019-04-10T09:43:56.292Z,100138.86
2019-04-10T09:46:24.722Z,100130.25
2019-04-10T09:48:52.645Z,100137.53
2019-04-10T09:51:21.491Z,100132.39
2019-04-10T09:53:49.572Z,100134.75
2019-04-10T09:56:17.563Z,100134.75
2019-04-10T09:58:45.508Z,100134.48
2019-04-10T10:01:15.850Z,100138.17
2019-04-10T10:03:44.453Z,100133.52
2019-04-10T10:06:23.480Z,100130.72
2019-04-10T10:08:43.478Z,100129.67
2019-04-10T10:11:11.691Z,100131.48
2019-04-10T10:13:39.626Z,100135.11
2019-04-10T10:16:08.516Z,100126.48
2019-04-10T10:18:37.316Z,100125.64
2019-04-10T10:21:05.641Z,100125.80
2019-04-10T10:23:33.966Z,100124.95
2019-04-10T10:26:01.910Z,100128.98
2019-04-10T10:28:30.989Z,100130.23
2019-04-10T10:30:59.918Z,100130.23
2019-04-10T10:33:28.086Z,100123.83
2019-04-10T10:35:56.142Z,100126.21
2019-04-10T10:38:25.182Z,100121.34
2019-04-10T10:40:53.335Z,100112.88
2019-04-10T10:43:22.575Z,100133.41
2019-04-10T10:45:51.273Z,100134.62
2019-04-10T10:48:19.838Z,100134.39
2019-04-10T10:50:47.974Z,100131.31
2019-04-10T10:53:16.411Z,100124.64
2019-04-10T10:55:45.505Z,100134.98
2019-04-10T10:58:13.683Z,100131.08
2019-04-10T11:00:43.071Z,100129.30
2019-04-10T11:03:11.907Z,100123.11
2019-04-10T11:05:40.139Z,100129.42
2019-04-10T11:08:08.206Z,100143.85
2019-04-10T11:10:36.411Z,100133.39
2019-04-10T11:13:04.775Z,100135.57
2019-04-10T11:15:37.759Z,100143.77
2019-04-10T11:18:06.482Z,100144.34
2019-04-10T11:20:36.412Z,100143.45
2019-04-10T11:23:06.151Z,100142.69
2019-04-10T11:25:35.830Z,100140.67
2019-04-10T11:28:05.834Z,100147.07
2019-04-10T11:30:34.687Z,100146.49
2019-04-10T11:33:03.569Z,100145.00
2019-04-10T11:35:31.996Z,100141.03
2019-04-10T11:38:02.536Z,100139.30
2019-04-10T11:40:31.649Z,100144.66
2019-04-10T11:43:02.818Z,100141.09
2019-04-10T11:45:37.976Z,100139.30
2019-04-10T11:48:01.708Z,100136.31
2019-04-10T11:50:30.050Z,100142.88
2019-04-10T11:53:00.381Z,100140.41
2019-04-10T11:55:29.741Z,100138.16
2019-04-10T11:57:59.915Z,100139.47
2019-04-10T12:00:47.298Z,100140.08
2019-04-10T12:03:10.244Z,100137.98
2019-04-10T12:05:41.141Z,100137.98
2019-04-10T12:08:33.616Z,100149.77
2019-04-10T12:13:10.206Z,100153.80
2019-04-10T12:15:38.653Z,100144.39
2019-04-10T12:18:06.889Z,100150.18
2019-04-10T12:20:35.447Z,100152.41
2019-04-10T12:23:03.648Z,100152.05
2019-04-10T12:25:32.602Z,100148.97
2019-04-10T12:28:01.310Z,100157.22
2019-04-10T12:30:29.540Z,100154.58
2019-04-10T12:32:57.572Z,100153.36
2019-04-10T12:35:25.834Z,100143.05
2019-04-10T12:38:02.248Z,100144.58
2019-04-10T12:40:23.827Z,100145.02
2019-04-10T12:42:52.406Z,100144.94
2019-04-10T12:45:20.669Z,100142.94
2019-04-10T12:47:48.714Z,100139.55
2019-04-10T12:50:16.777Z,100146.30
2019-04-10T12:52:45.065Z,100148.30
2019-04-10T12:55:14.474Z,100141.13
2019-04-10T12:57:43.461Z,100138.58
2019-04-10T13:00:18.125Z,100139.64
2019-04-10T13:02:48.345Z,100138.61
2019-04-10T13:05:18.876Z,100137.84
2019-04-10T13:07:47.728Z,100142.28
2019-04-10T13:10:15.910Z,100136.80
2019-04-10T13:12:45.170Z,100136.70
2019-04-10T13:15:13.451Z,100138.55
2019-04-10T13:17:42.768Z,100140.58
2019-04-10T13:20:22.127Z,100141.39
2019-04-10T13:22:50.683Z,100144.72
2019-04-10T13:25:18.957Z,100132.77
2019-04-10T13:27:47.333Z,100134.00
2019-04-10T13:30:16.594Z,100137.81
2019-04-10T13:32:44.720Z,100138.40
2019-04-10T13:35:13.672Z,100141.81
2019-04-10T13:37:43.637Z,100141.11
2019-04-10T13:40:13.174Z,100141.99
2019-04-10T13:42:41.209Z,100142.91
2019-04-10T13:45:09.432Z,100145.28
2019-04-10T13:47:38.583Z,100142.56
2019-04-10T13:50:08.486Z,100140.83
2019-04-10T13:52:38.715Z,100147.92
2019-04-10T13:55:10.078Z,100149.29
2019-04-10T13:57:39.224Z,100149.25
2019-04-10T14:00:09.624Z,100148.14
2019-04-10T14:02:37.768Z,100147.38
2019-04-10T14:05:08.083Z,100146.26
2019-04-10T14:07:36.277Z,100145.06
2019-04-10T14:10:07.102Z,100150.44
2019-04-10T14:12:35.405Z,100156.38
2019-04-10T14:15:04.895Z,100153.05
2019-04-10T14:17:33.372Z,100152.50
2019-04-10T14:20:02.857Z,100147.38
2019-04-10T14:22:31.537Z,100145.87
2019-04-10T14:24:59.608Z,100149.59
2019-04-10T14:27:28.499Z,100151.98
2019-04-10T14:29:58.499Z,100148.01
2019-04-10T14:32:31.493Z,100149.04
2019-04-10T14:35:01.032Z,100148.87
2019-04-10T14:37:29.577Z,100151.55
2019-04-10T14:39:57.932Z,100148.77
2019-04-10T14:42:26.620Z,100148.59
2019-04-10T14:44:55.105Z,100153.25
2019-04-10T14:47:23.986Z,100152.41
2019-04-10T14:49:54.043Z,100152.61
2019-04-10T14:52:23.287Z,100155.21
2019-04-10T14:54:52.196Z,100153.04
2019-04-10T14:57:20.972Z,100150.22
2019-04-10T14:59:49.365Z,100158.01
2019-04-10T15:02:18.900Z,100150.80
2019-04-10T15:04:46.976Z,100154.36
2019-04-10T15:07:15.140Z,100148.55
2019-04-10T15:09:43.244Z,100156.14
2019-04-10T15:12:12.184Z,100150.34
2019-04-10T15:14:40.899Z,100151.49
2019-04-10T15:17:09.509Z,100154.61
2019-04-10T15:19:37.859Z,100156.14
2019-04-10T15:22:05.900Z,100162.27
2019-04-10T15:24:34.004Z,100163.14
2019-04-10T15:27:02.724Z,100144.84
2019-04-10T15:29:32.349Z,100162.37
2019-04-10T15:32:00.478Z,100163.35
2019-04-10T15:34:28.517Z,100165.34
2019-04-10T15:36:56.530Z,100159.86
2019-04-10T15:39:32.296Z,100168.20
2019-04-10T15:41:55.307Z,100170.73
2019-04-10T15:44:24.283Z,100170.05
2019-04-10T15:46:53.306Z,100170.16
2019-04-10T15:49:21.459Z,100175.59
2019-04-10T15:51:49.793Z,100181.12
2019-04-10T15:54:18.130Z,100181.81
2019-04-10T15:56:46.570Z,100183.19
2019-04-10T15:59:28.187Z,100185.78
2019-04-10T16:01:57.320Z,100186.02
2019-04-10T16:04:25.565Z,100182.16
2019-04-10T16:06:53.747Z,100188.83
2019-04-10T16:09:21.902Z,100186.47
2019-04-10T16:12:02.682Z,100192.50
2019-04-10T16:14:32.068Z,100188.83
2019-04-10T16:17:22.235Z,100187.19
2019-04-10T16:20:19.653Z,100185.70
2019-04-10T16:23:08.086Z,100187.77
2019-04-10T16:25:38.743Z,100186.73
2019-04-10T16:28:11.087Z,100194.20
2019-04-10T16:30:43.264Z,100194.20
2019-04-10T16:33:11.288Z,100201.02
2019-04-10T16:35:40.075Z,100203.42
2019-04-10T16:38:08.575Z,100195.62
2019-04-10T16:40:38.166Z,100212.80
2019-04-10T16:43:07.809Z,100209.13
2019-04-10T16:45:36.214Z,100202.30
2019-04-10T16:48:04.616Z,100208.67
2019-04-10T16:50:32.718Z,100211.03
2019-04-10T16:53:01.309Z,100212.35
2019-04-10T16:55:29.647Z,100212.57
2019-04-10T16:57:57.658Z,100211.88
2019-04-10T17:00:26.933Z,100216.19
2019-04-10T17:02:55.013Z,100215.22
2019-04-10T17:05:23.030Z,100213.83
2019-04-10T17:07:51.657Z,100214.17
2019-04-10T17:10:24.361Z,100215.28
2019-04-10T17:12:50.358Z,100220.84
2019-04-10T17:15:18.318Z,100221.76
2019-04-10T17:17:46.515Z,100222.20
2019-04-10T17:20:16.008Z,100220.31
2019-04-10T17:22:47.247Z,100218.42
2019-04-10T17:25:14.207Z,100226.20
2019-04-10T17:27:42.334Z,100228.55
2019-04-10T17:30:11.726Z,100231.70
2019-04-10T17:32:52.253Z,100233.94
2019-04-10T17:35:21.351Z,100230.73
2019-04-10T17:37:49.914Z,100236.36
2019-04-10T17:40:31.090Z,100237.21
2019-04-10T17:42:49.478Z,100237.28
2019-04-10T17:45:18.512Z,100241.87
2019-04-10T17:47:47.243Z,100240.48
2019-04-10T17:50:16.595Z,100244.52
2019-04-10T17:52:45.174Z,100247.44
2019-04-10T17:55:13.660Z,100251.75
2019-04-10T17:57:44.612Z,100247.00
2019-04-10T18:00:53.840Z,100254.11
2019-04-10T18:03:25.372Z,100254.19
2019-04-10T18:05:55.143Z,100259.88
2019-04-10T18:08:26.393Z,100267.66
2019-04-10T18:10:55.423Z,100273.99
2019-04-10T18:13:24.492Z,100275.66
2019-04-10T18:15:53.800Z,100277.95
2019-04-10T18:18:22.353Z,100284.34
2019-04-10T18:20:51.158Z,100287.84
2019-04-10T18:23:19.666Z,100288.45
2019-04-10T18:25:47.728Z,100290.75
2019-04-10T18:28:15.722Z,100293.46
2019-04-10T18:30:44.012Z,100301.66
2019-04-10T18:33:12.532Z,100297.15
2019-04-10T18:35:40.816Z,100300.84
2019-04-10T18:38:09.093Z,100303.21
2019-04-10T18:40:37.224Z,100308.06
2019-04-10T18:43:05.354Z,100312.38
2019-04-10T18:45:33.717Z,100302.59
2019-04-10T18:48:02.782Z,100307.72
2019-04-10T18:50:34.116Z,100313.00
2019-04-10T18:53:02.154Z,100315.53
2019-04-10T18:55:30.167Z,100313.77
2019-04-10T18:57:59.131Z,100324.48
2019-04-10T19:00:46.205Z,100324.48
2019-04-10T19:03:50.140Z,100325.81
2019-04-10T19:06:18.994Z,100324.77
2019-04-10T19:09:00.067Z,100319.56
2019-04-10T19:11:22.779Z,100325.75
2019-04-10T19:13:47.275Z,100324.08
2019-04-10T19:16:17.377Z,100331.16
2019-04-10T19:18:46.137Z,100331.50
2019-04-10T19:21:15.540Z,100329.48
2019-04-10T19:23:43.763Z,100334.06
2019-04-10T19:26:13.947Z,100334.06
2019-04-10T19:28:45.092Z,100327.39
2019-04-10T19:31:19.453Z,100329.33
2019-04-10T19:33:44.630Z,100327.54
2019-04-10T19:36:12.756Z,100333.17
2019-04-10T19:38:41.206Z,100336.88
2019-04-10T19:41:21.039Z,100334.39
2019-04-10T19:43:40.095Z,100316.02
2019-04-10T19:46:09.399Z,100340.02
2019-04-10T19:48:37.472Z,100335.13
2019-04-10T19:51:05.838Z,100342.08
2019-04-10T19:53:33.976Z,100341.14
2019-04-10T19:56:02.429Z,100341.76
2019-04-10T19:58:32.191Z,100345.42
2019-04-10T20:01:01.116Z,100348.13
2019-04-10T20:03:29.927Z,100347.35
2019-04-10T20:05:58.433Z,100352.97
2019-04-10T20:08:27.885Z,100349.27
2019-04-10T20:10:56.325Z,100348.70
2019-04-10T20:13:24.861Z,100351.09
2019-04-10T20:15:53.147Z,100354.51
2019-04-10T20:18:21.583Z,100351.39
2019-04-10T20:20:49.645Z,100355.20
2019-04-10T20:23:18.146Z,100354.58
2019-04-10T20:25:48.410Z,100358.89
2019-04-10T20:28:16.609Z,100362.70
2019-04-10T20:30:44.652Z,100359.69
2019-04-10T20:33:12.671Z,100367.75
2019-04-10T20:35:40.762Z,100376.95
2019-04-10T20:38:09.337Z,100372.64
2019-04-10T20:40:38.104Z,100379.97
2019-04-10T20:43:06.894Z,100378.92
2019-04-10T20:45:35.763Z,100385.87
2019-04-10T20:48:06.466Z,100388.91
2019-04-10T20:50:34.843Z,100386.28
2019-04-10T20:53:03.972Z,100388.90
2019-04-10T20:55:32.156Z,100379.76
2019-04-10T20:58:00.099Z,100385.91
2019-04-10T21:00:36.884Z,100385.90
2019-04-10T21:03:04.992Z,100387.89
2019-04-10T21:05:33.774Z,100388.20
2019-04-10T21:08:02.165Z,100391.35
2019-04-10T21:10:40.859Z,100394.24
2019-04-10T21:13:09.072Z,100391.73
2019-04-10T21:15:37.597Z,100393.91
2019-04-10T21:18:06.791Z,100386.35
2019-04-10T21:20:34.985Z,100392.78
2019-04-10T21:23:03.482Z,100400.44
2019-04-10T21:25:32.942Z,100404.25
2019-04-10T21:28:01.026Z,100407.39
2019-04-10T21:30:38.219Z,100405.86
2019-04-10T21:33:25.508Z,100409.95
2019-04-10T21:35:54.149Z,100407.67
2019-04-10T21:38:23.479Z,100414.05
2019-04-10T21:40:51.808Z,100410.91
2019-04-10T21:43:20.306Z,100420.49
2019-04-10T21:45:50.263Z,100427.25
2019-04-10T21:48:18.892Z,100428.09
2019-04-10T21:50:47.091Z,100425.33
2019-04-10T21:53:16.471Z,100424.13
2019-04-10T21:55:45.771Z,100428.34
2019-04-10T21:58:14.466Z,100425.48
2019-04-10T22:01:01.363Z,100429.31
2019-04-10T22:03:29.843Z,100427.64
2019-04-10T22:06:23.953Z,100435.88
2019-04-10T22:09:04.101Z,100436.63
2019-04-10T22:11:32.947Z,100439.38
2019-04-10T22:14:01.126Z,100444.53
2019-04-10T22:16:30.284Z,100445.97
2019-04-10T22:18:58.453Z,100448.36
2019-04-10T22:21:29.181Z,100449.67
2019-04-10T22:23:57.345Z,100448.36
2019-04-10T22:26:26.166Z,100450.03
2019-04-10T22:28:54.835Z,100448.69
2019-04-10T22:31:23.786Z,100446.80
2019-04-10T22:33:52.352Z,100452.18
2019-04-10T22:36:20.824Z,100453.50
2019-04-10T22:38:49.688Z,100457.91
2019-04-10T22:41:26.445Z,100453.69
2019-04-10T22:43:49.908Z,100455.88
2019-04-10T22:46:19.206Z,100452.39
2019-04-10T22:48:47.946Z,100455.16
2019-04-10T22:51:17.070Z,100442.80
2019-04-10T22:53:45.850Z,100453.09
2019-04-10T22:56:15.025Z,100448.42
2019-04-10T22:58:44.160Z,100449.25
2019-04-10T23:01:13.150Z,100452.01
2019-04-10T23:03:41.694Z,100453.92
2019-04-10T23:06:09.696Z,100453.89
2019-04-10T23:08:37.986Z,100454.26
2019-04-10T23:11:06.323Z,100453.43
2019-04-10T23:13:34.304Z,100452.81
2019-04-10T23:16:08.102Z,100451.24
2019-04-10T23:18:37.250Z,100451.96
2019-04-10T23:21:06.119Z,100445.88
2019-04-10T23:23:34.901Z,100450.31
2019-04-10T23:26:02.898Z,100447.33
2019-04-10T23:28:31.564Z,100445.39
2019-04-10T23:30:59.777Z,100448.25
2019-04-10T23:33:28.137Z,100450.02
2019-04-10T23:35:56.387Z,100450.75
2019-04-10T23:38:25.643Z,100453.38
2019-04-10T23:40:53.845Z,100452.42
2019-04-10T23:43:22.691Z,100458.44
2019-04-10T23:45:52.060Z,100450.65
2019-04-10T23:48:22.527Z,100459.88
2019-04-10T23:50:50.835Z,100454.33
2019-04-10T23:53:18.839Z,100461.98
2019-04-10T23:55:46.645Z,100469.52
2019-04-10T23:58:14.521Z,100457.32
